createdAt,value
2019-04-05T00:00:15.863Z,51.14
2019-04-05T00:01:15.786Z,50.93
2019-04-05T00:02:15.783Z,51.24
2019-04-05T00:03:15.792Z,51.01
2019-04-05T00:04:15.757Z,50.93
2019-04-05T00:05:15.744Z,50.93
2019-04-05T00:06:15.737Z,51.62
2019-04-05T00:07:15.722Z,50.84
2019-04-05T00:08:15.716Z,51.14
2019-04-05T00:09:15.761Z,50.84
2019-04-05T00:10:15.692Z,50.84
2019-04-05T00:11:15.694Z,51.14
2019-04-05T00:12:15.671Z,50.84
2019-04-05T00:13:15.663Z,50.84
2019-04-05T00:14:15.654Z,50.84
2019-04-05T00:15:16.177Z,51.04
2019-04-05T00:16:15.628Z,50.93
2019-04-05T00:17:15.615Z,51.14
2019-04-05T00:18:15.600Z,51.14
2019-04-05T00:19:15.664Z,51.54
2019-04-05T00:20:15.585Z,51.75
2019-04-05T00:21:15.573Z,51.77
2019-04-05T00:22:15.561Z,51.46
2019-04-05T00:23:15.547Z,51.37
2019-04-05T00:24:15.538Z,51.46
2019-04-05T00:25:15.551Z,51.57
2019-04-05T00:26:15.516Z,51.46
2019-04-05T00:27:15.507Z,51.26
2019-04-05T00:28:15.506Z,51.26
2019-04-05T00:29:15.544Z,51.57
2019-04-05T00:30:15.470Z,51.26
2019-04-05T00:31:15.467Z,52.18
2019-04-05T00:32:15.489Z,52.18
2019-04-05T00:33:15.441Z,51.77
2019-04-05T00:34:15.427Z,52.18
2019-04-05T00:35:15.432Z,51.98
2019-04-05T00:36:15.406Z,52.18
2019-04-05T00:37:15.395Z,52.18
2019-04-05T00:38:15.390Z,52.28
2019-04-05T00:39:15.379Z,52.28
2019-04-05T00:40:15.411Z,52.18
2019-04-05T00:41:15.361Z,52.28
2019-04-05T00:42:15.408Z,52.69
2019-04-05T00:43:15.334Z,52.08
2019-04-05T00:44:15.326Z,52.71
2019-04-05T00:45:27.210Z,52.71
2019-04-05T00:46:16.309Z,52.40
2019-04-05T00:47:15.289Z,52.91
2019-04-05T00:48:15.281Z,52.40
2019-04-05T00:49:15.270Z,53.12
2019-04-05T00:50:15.332Z,52.91
2019-04-05T00:51:15.246Z,52.91
2019-04-05T00:52:15.233Z,52.91
2019-04-05T00:53:15.230Z,52.81
2019-04-05T00:54:15.210Z,53.12
2019-04-05T00:55:15.212Z,52.71
2019-04-05T00:56:15.206Z,52.94
2019-04-05T00:57:15.225Z,52.73
2019-04-05T00:58:15.171Z,52.61
2019-04-05T00:59:15.157Z,52.94
2019-04-05T01:00:15.146Z,52.23
2019-04-05T01:01:15.141Z,53.34
2019-04-05T01:02:15.129Z,53.45
2019-04-05T01:03:15.127Z,53.14
2019-04-05T01:04:15.117Z,52.94
2019-04-05T01:05:15.097Z,53.14
2019-04-05T01:06:15.141Z,53.55
2019-04-05T01:07:15.078Z,53.14
2019-04-05T01:08:15.062Z,53.14
2019-04-05T01:09:15.058Z,53.55
2019-04-05T01:10:15.041Z,53.34
2019-04-05T01:11:15.079Z,53.55
2019-04-05T01:12:15.064Z,53.06
2019-04-05T01:13:15.009Z,53.78
2019-04-05T01:14:15.054Z,53.17
2019-04-05T01:15:14.987Z,53.27
2019-04-05T01:16:14.972Z,53.47
2019-04-05T01:17:24.494Z,53.37
2019-04-05T01:18:15.948Z,53.27
2019-04-05T01:19:14.985Z,54.18
2019-04-05T01:20:14.929Z,53.17
2019-04-05T01:21:14.923Z,53.37
2019-04-05T01:22:14.908Z,54.18
2019-04-05T01:23:14.921Z,53.78
2019-04-05T01:24:14.891Z,53.88
2019-04-05T01:25:14.882Z,53.78
2019-04-05T01:26:14.862Z,53.98
2019-04-05T01:27:14.856Z,53.67
2019-04-05T01:28:14.841Z,54.18
2019-04-05T01:29:14.875Z,53.78
2019-04-05T01:30:14.819Z,53.47
2019-04-05T01:31:14.814Z,53.78
2019-04-05T01:32:14.811Z,53.67
2019-04-05T01:33:14.793Z,54.59
2019-04-05T01:34:14.778Z,54.31
2019-04-05T01:35:14.826Z,54.31
2019-04-05T01:36:14.757Z,54.21
2019-04-05T01:37:14.744Z,53.88
2019-04-05T01:38:14.738Z,53.90
2019-04-05T01:39:14.723Z,53.90
2019-04-05T01:40:14.717Z,54.00
2019-04-05T01:41:14.778Z,54.11
2019-04-05T01:42:14.692Z,54.11
2019-04-05T01:43:14.691Z,54.11
2019-04-05T01:44:14.744Z,54.11
2019-04-05T01:45:14.660Z,54.11
2019-04-05T01:46:14.645Z,53.59
2019-04-05T01:47:14.641Z,53.90
2019-04-05T01:48:14.627Z,53.59
2019-04-05T01:49:14.653Z,54.11
2019-04-05T01:50:14.612Z,53.80
2019-04-05T01:51:14.590Z,54.00
2019-04-05T01:52:14.641Z,54.41
2019-04-05T01:53:14.568Z,53.59
2019-04-05T01:54:14.561Z,53.59
2019-04-05T01:55:14.621Z,53.70
2019-04-05T01:56:14.540Z,53.59
2019-04-05T01:57:14.528Z,54.03
2019-04-05T01:58:14.514Z,53.63
2019-04-05T01:59:14.511Z,53.70
2019-04-05T02:00:14.503Z,54.03
2019-04-05T02:01:14.495Z,54.03
2019-04-05T02:02:14.476Z,53.63
2019-04-05T02:03:14.460Z,53.93
2019-04-05T02:04:14.451Z,54.13
2019-04-05T02:05:14.441Z,54.94
2019-04-05T02:06:14.483Z,54.94
2019-04-05T02:07:14.419Z,54.44
2019-04-05T02:08:14.419Z,54.74
2019-04-05T02:09:14.398Z,54.24
2019-04-05T02:10:14.383Z,54.44
2019-04-05T02:11:14.425Z,54.64
2019-04-05T02:12:14.364Z,54.24
2019-04-05T02:13:14.356Z,54.13
2019-04-05T02:14:14.337Z,54.64
2019-04-05T02:15:14.325Z,54.24
2019-04-05T02:16:14.373Z,54.03
2019-04-05T02:17:14.316Z,54.24
2019-04-05T02:18:14.293Z,54.26
2019-04-05T02:19:14.284Z,54.54
2019-04-05T02:20:14.281Z,54.33
2019-04-05T02:21:14.314Z,54.24
2019-04-05T02:22:14.264Z,54.64
2019-04-05T02:23:14.238Z,54.24
2019-04-05T02:24:14.234Z,54.44
2019-04-05T02:25:14.220Z,54.44
2019-04-05T02:26:14.246Z,54.24
2019-04-05T02:27:14.194Z,54.36
2019-04-05T02:28:14.185Z,54.74
2019-04-05T02:29:14.172Z,54.26
2019-04-05T02:30:14.166Z,54.46
2019-04-05T02:31:14.158Z,54.46
2019-04-05T02:32:14.201Z,54.54
2019-04-05T02:33:14.167Z,54.66
2019-04-05T02:34:14.124Z,54.46
2019-04-05T02:35:14.115Z,54.66
2019-04-05T02:36:14.101Z,54.57
2019-04-05T02:37:14.145Z,54.66
2019-04-05T02:38:14.128Z,54.57
2019-04-05T02:39:14.065Z,54.87
2019-04-05T02:40:14.059Z,54.97
2019-04-05T02:41:14.041Z,54.90
2019-04-05T02:42:14.036Z,55.07
2019-04-05T02:43:14.060Z,54.97
2019-04-05T02:44:14.028Z,55.07
2019-04-05T02:45:14.007Z,54.87
2019-04-05T02:46:23.507Z,54.97
2019-04-05T02:47:14.983Z,54.87
2019-04-05T02:48:13.991Z,54.66
2019-04-05T02:49:13.953Z,54.97
2019-04-05T02:50:13.940Z,54.66
2019-04-05T02:51:13.931Z,54.90
2019-04-05T02:52:13.926Z,54.59
2019-04-05T02:53:13.908Z,54.49
2019-04-05T02:54:13.916Z,54.28
2019-04-05T02:55:13.891Z,54.39
2019-04-05T02:56:13.885Z,54.90
2019-04-05T02:57:13.866Z,55.51
2019-04-05T02:58:13.853Z,54.69
2019-04-05T02:59:14.095Z,54.69
2019-04-05T03:00:13.839Z,54.90
2019-04-05T03:01:13.828Z,55.51
2019-04-05T03:02:13.815Z,55.30
2019-04-05T03:03:13.800Z,55.81
2019-04-05T03:04:13.797Z,55.71
2019-04-05T03:05:13.794Z,56.02
2019-04-05T03:06:13.785Z,55.51
2019-04-05T03:07:13.760Z,55.81
2019-04-05T03:08:13.748Z,55.30
2019-04-05T03:09:13.739Z,55.81
2019-04-05T03:10:13.780Z,55.30
2019-04-05T03:11:13.713Z,55.63
2019-04-05T03:12:13.704Z,55.63
2019-04-05T03:13:13.695Z,55.43
2019-04-05T03:14:13.738Z,55.74
2019-04-05T03:15:13.668Z,55.74
2019-04-05T03:16:13.664Z,56.15
2019-04-05T03:17:13.651Z,55.74
2019-04-05T03:18:13.644Z,56.04
2019-04-05T03:19:13.630Z,55.94
2019-04-05T03:20:13.693Z,55.74
2019-04-05T03:21:13.609Z,55.84
2019-04-05T03:22:13.602Z,56.04
2019-04-05T03:23:13.583Z,55.53
2019-04-05T03:24:13.573Z,55.63
2019-04-05T03:25:13.621Z,55.63
2019-04-05T03:26:13.567Z,55.94
2019-04-05T03:27:13.545Z,55.94
2019-04-05T03:28:13.532Z,55.94
2019-04-05T03:29:13.523Z,55.74
2019-04-05T03:30:13.596Z,56.04
2019-04-05T03:31:13.528Z,56.04
2019-04-05T03:32:13.494Z,56.35
2019-04-05T03:33:13.487Z,56.85
2019-04-05T03:34:13.463Z,56.48
2019-04-05T03:35:13.453Z,56.96
2019-04-05T03:36:13.497Z,56.48
2019-04-05T03:37:13.428Z,56.58
2019-04-05T03:38:13.427Z,56.37
2019-04-05T03:39:13.406Z,56.48
2019-04-05T03:40:13.393Z,56.58
2019-04-05T03:41:13.438Z,56.58
2019-04-05T03:42:13.384Z,56.27
2019-04-05T03:43:13.366Z,56.50
2019-04-05T03:44:13.355Z,56.78
2019-04-05T03:45:13.345Z,56.88
2019-04-05T03:46:13.395Z,56.78
2019-04-05T03:47:13.337Z,57.50
2019-04-05T03:48:13.308Z,56.99
2019-04-05T03:49:13.294Z,57.29
2019-04-05T03:50:13.288Z,57.42
2019-04-05T03:51:13.273Z,57.01
2019-04-05T03:52:13.373Z,56.91
2019-04-05T03:53:13.266Z,56.91
2019-04-05T03:54:13.246Z,56.91
2019-04-05T03:55:13.228Z,56.58
2019-04-05T03:56:13.224Z,56.71
2019-04-05T03:57:13.209Z,57.01
2019-04-05T03:58:13.213Z,56.81
2019-04-05T03:59:13.185Z,57.21
2019-04-05T04:00:13.193Z,56.60
2019-04-05T04:01:13.172Z,57.21
2019-04-05T04:02:13.159Z,57.62
2019-04-05T04:03:14.027Z,58.23
2019-04-05T04:04:13.137Z,57.86
2019-04-05T04:05:13.131Z,57.52
2019-04-05T04:06:13.110Z,57.62
2019-04-05T04:07:13.102Z,57.93
2019-04-05T04:08:13.097Z,58.06
2019-04-05T04:09:13.082Z,58.26
2019-04-05T04:10:13.072Z,58.26
2019-04-05T04:11:13.061Z,57.75
2019-04-05T04:12:13.059Z,57.65
2019-04-05T04:13:13.046Z,58.16
2019-04-05T04:14:13.026Z,58.16
2019-04-05T04:15:14.111Z,58.16
2019-04-05T04:16:13.004Z,57.96
2019-04-05T04:17:13.659Z,57.96
2019-04-05T04:18:12.990Z,57.86
2019-04-05T04:19:12.990Z,58.16
2019-04-05T04:20:12.962Z,57.96
2019-04-05T04:21:12.947Z,57.75
2019-04-05T04:22:12.940Z,58.67
2019-04-05T04:23:12.982Z,58.91
2019-04-05T04:24:12.918Z,58.91
2019-04-05T04:25:12.907Z,58.78
2019-04-05T04:26:12.933Z,58.60
2019-04-05T04:27:12.886Z,58.70
2019-04-05T04:28:12.953Z,58.60
2019-04-05T04:29:12.867Z,58.50
2019-04-05T04:30:12.848Z,58.78
2019-04-05T04:31:12.837Z,58.70
2019-04-05T04:32:12.830Z,59.28
2019-04-05T04:33:12.823Z,59.21
2019-04-05T04:34:12.882Z,59.21
2019-04-05T04:35:12.797Z,59.21
2019-04-05T04:36:13.317Z,59.62
2019-04-05T04:37:12.771Z,59.62
2019-04-05T04:38:12.764Z,59.82
2019-04-05T04:39:12.760Z,59.31
2019-04-05T04:40:12.759Z,59.31
2019-04-05T04:41:12.728Z,59.21
2019-04-05T04:42:12.718Z,59.00
2019-04-05T04:43:12.710Z,59.00
2019-04-05T04:44:12.751Z,59.52
2019-04-05T04:45:13.057Z,59.41
2019-04-05T04:46:12.678Z,59.62
2019-04-05T04:47:25.463Z,59.41
2019-04-05T04:48:13.657Z,59.72
2019-04-05T04:49:12.675Z,59.21
2019-04-05T04:50:12.643Z,59.21
2019-04-05T04:51:12.620Z,59.52
2019-04-05T04:52:12.647Z,59.31
2019-04-05T04:53:12.598Z,59.72
2019-04-05T04:54:12.641Z,59.44
2019-04-05T04:55:12.606Z,59.21
2019-04-05T04:56:12.567Z,59.31
2019-04-05T04:57:12.549Z,59.55
2019-04-05T04:58:12.543Z,60.16
2019-04-05T04:59:12.528Z,60.05
2019-04-05T05:00:12.550Z,60.23
2019-04-05T05:01:12.532Z,60.05
2019-04-05T05:02:12.508Z,60.26
2019-04-05T05:03:12.490Z,59.95
2019-04-05T05:04:12.478Z,60.36
2019-04-05T05:05:12.467Z,60.46
2019-04-05T05:06:12.511Z,59.64
2019-04-05T05:07:12.446Z,59.64
2019-04-05T05:08:12.434Z,59.75
2019-04-05T05:09:12.418Z,60.57
2019-04-05T05:10:12.423Z,59.85
2019-04-05T05:11:14.885Z,59.85
2019-04-05T05:12:12.387Z,59.95
2019-04-05T05:13:12.376Z,59.64
2019-04-05T05:14:12.361Z,59.44
2019-04-05T05:15:12.351Z,60.46
2019-04-05T05:16:12.353Z,60.77
2019-04-05T05:17:12.335Z,60.16
2019-04-05T05:18:12.317Z,60.57
2019-04-05T05:19:12.310Z,60.46
2019-04-05T05:20:12.333Z,60.57
2019-04-05T05:21:12.354Z,59.95
2019-04-05T05:22:12.274Z,59.64
2019-04-05T05:23:12.295Z,59.72
2019-04-05T05:24:12.300Z,60.57
2019-04-05T05:25:12.274Z,59.75
2019-04-05T05:26:12.233Z,60.23
2019-04-05T05:27:12.228Z,59.75
2019-04-05T05:28:12.210Z,60.53
2019-04-05T05:29:12.203Z,60.53
2019-04-05T05:30:12.197Z,59.82
2019-04-05T05:31:12.253Z,59.92
2019-04-05T05:32:12.170Z,59.92
2019-04-05T05:33:12.160Z,59.92
2019-04-05T05:34:12.147Z,60.16
2019-04-05T05:35:12.130Z,59.72
2019-04-05T05:36:12.124Z,59.92
2019-04-05T05:37:12.167Z,59.41
2019-04-05T05:38:12.111Z,59.92
2019-04-05T05:39:12.145Z,60.23
2019-04-05T05:40:12.084Z,60.13
2019-04-05T05:41:12.072Z,60.53
2019-04-05T05:42:12.057Z,59.72
2019-04-05T05:43:12.045Z,59.82
2019-04-05T05:44:12.093Z,60.23
2019-04-05T05:45:12.027Z,59.39
2019-04-05T05:46:12.012Z,59.08
2019-04-05T05:47:12.039Z,59.59
2019-04-05T05:48:12.027Z,59.18
2019-04-05T05:49:11.999Z,59.18
2019-04-05T05:50:11.990Z,59.49
2019-04-05T05:51:11.963Z,59.59
2019-04-05T05:52:12.015Z,59.41
2019-04-05T05:53:11.947Z,60.10
2019-04-05T05:54:11.954Z,59.72
2019-04-05T05:55:11.913Z,60.03
2019-04-05T05:56:11.912Z,59.62
2019-04-05T05:57:11.888Z,60.44
2019-04-05T05:58:11.877Z,60.13
2019-04-05T05:59:11.908Z,59.72
2019-04-05T06:00:11.860Z,59.41
2019-04-05T06:01:11.856Z,59.92
2019-04-05T06:02:11.847Z,60.23
2019-04-05T06:03:12.079Z,60.57
2019-04-05T06:04:12.852Z,60.64
2019-04-05T06:05:11.847Z,60.64
2019-04-05T06:06:11.793Z,60.74
2019-04-05T06:07:11.786Z,60.53
2019-04-05T06:08:11.771Z,60.77
2019-04-05T06:09:11.765Z,61.72
2019-04-05T06:10:11.752Z,61.69
2019-04-05T06:11:11.751Z,62.23
2019-04-05T06:12:11.727Z,62.63
2019-04-05T06:13:11.717Z,62.71
2019-04-05T06:14:11.700Z,62.54
2019-04-05T06:15:11.695Z,62.95
2019-04-05T06:16:11.698Z,62.63
2019-04-05T06:17:11.689Z,63.04
2019-04-05T06:18:12.752Z,63.86
2019-04-05T06:19:11.651Z,63.28
2019-04-05T06:20:11.635Z,63.56
2019-04-05T06:21:11.631Z,63.56
2019-04-05T06:22:11.617Z,63.35
2019-04-05T06:23:11.612Z,64.20
2019-04-05T06:24:11.590Z,63.56
2019-04-05T06:25:11.584Z,63.56
2019-04-05T06:26:11.575Z,63.25
2019-04-05T06:27:11.566Z,64.07
2019-04-05T06:28:11.576Z,64.68
2019-04-05T06:29:11.541Z,64.37
2019-04-05T06:30:11.529Z,64.68
2019-04-05T06:31:11.514Z,64.68
2019-04-05T06:32:11.502Z,65.33
2019-04-05T06:33:11.502Z,66.14
2019-04-05T06:34:11.485Z,66.45
2019-04-05T06:35:11.475Z,65.84
2019-04-05T06:36:11.465Z,66.04
2019-04-05T06:37:11.456Z,65.73
2019-04-05T06:38:11.493Z,66.75
2019-04-05T06:39:11.435Z,66.45
2019-04-05T06:40:11.419Z,66.14
2019-04-05T06:41:11.402Z,66.96
2019-04-05T06:42:11.410Z,67.16
2019-04-05T06:43:11.390Z,66.75
2019-04-05T06:44:11.390Z,67.19
2019-04-05T06:45:11.370Z,66.96
2019-04-05T06:46:11.354Z,67.57
2019-04-05T06:47:11.387Z,66.83
2019-04-05T06:48:18.895Z,66.11
2019-04-05T06:49:12.313Z,66.39
2019-04-05T06:50:11.305Z,65.57
2019-04-05T06:51:11.294Z,65.64
2019-04-05T06:52:11.286Z,65.10
2019-04-05T06:53:11.289Z,65.20
2019-04-05T06:54:11.278Z,65.54
2019-04-05T06:55:11.252Z,65.00
2019-04-05T06:56:11.246Z,64.90
2019-04-05T06:57:11.251Z,65.00
2019-04-05T06:58:11.229Z,65.34
2019-04-05T06:59:11.231Z,65.84
2019-04-05T07:00:11.208Z,66.25
2019-04-05T07:01:11.191Z,65.44
2019-04-05T07:02:11.177Z,65.00
2019-04-05T07:03:13.568Z,65.20
2019-04-05T07:04:11.162Z,65.10
2019-04-05T07:05:11.201Z,64.97
2019-04-05T07:06:11.138Z,64.56
2019-04-05T07:07:11.160Z,63.71
2019-04-05T07:08:11.111Z,63.18
2019-04-05T07:09:11.147Z,63.38
2019-04-05T07:10:11.135Z,62.66
2019-04-05T07:11:11.107Z,62.63
2019-04-05T07:12:11.066Z,61.90
2019-04-05T07:13:11.060Z,61.52
2019-04-05T07:14:11.041Z,62.43
2019-04-05T07:15:11.043Z,64.25
2019-04-05T07:16:11.302Z,65.20
2019-04-05T07:17:11.017Z,66.33
2019-04-05T07:18:11.005Z,65.58
2019-04-05T07:19:10.989Z,64.87
2019-04-05T07:20:10.977Z,65.71
2019-04-05T07:21:10.967Z,67.30
2019-04-05T07:22:10.968Z,69.31
2019-04-05T07:23:10.951Z,69.42
2019-04-05T07:24:10.943Z,69.72
2019-04-05T07:25:10.929Z,70.78
2019-04-05T07:26:10.917Z,70.57
2019-04-05T07:27:10.967Z,71.97
2019-04-05T07:28:10.896Z,74.05
2019-04-05T07:29:10.883Z,74.94
2019-04-05T07:30:10.897Z,76.48
2019-04-05T07:31:10.866Z,76.78
2019-04-05T07:32:10.850Z,76.41
2019-04-05T07:33:10.847Z,76.89
2019-04-05T07:34:10.833Z,76.03
2019-04-05T07:35:10.814Z,76.48
2019-04-05T07:36:10.828Z,76.68
2019-04-05T07:37:10.825Z,76.78
2019-04-05T07:38:10.784Z,76.78
2019-04-05T07:39:10.770Z,77.50
2019-04-05T07:40:10.793Z,77.84
2019-04-05T07:41:10.753Z,79.15
2019-04-05T07:42:10.757Z,79.32
2019-04-05T07:43:10.736Z,79.32
2019-04-05T07:44:10.712Z,79.22
2019-04-05T07:45:10.705Z,78.77
2019-04-05T07:46:10.692Z,78.46
2019-04-05T07:47:10.701Z,77.71
2019-04-05T07:48:10.674Z,77.71
2019-04-05T07:49:10.666Z,77.44
2019-04-05T07:50:10.653Z,79.01
2019-04-05T07:51:10.649Z,80.28
2019-04-05T07:52:12.909Z,81.34
2019-04-05T07:53:10.617Z,82.71
2019-04-05T07:54:10.603Z,83.13
2019-04-05T07:55:10.599Z,83.33
2019-04-05T07:56:10.593Z,83.50
2019-04-05T07:57:10.581Z,82.95
2019-04-05T07:58:10.568Z,82.43
2019-04-05T07:59:10.604Z,82.78
2019-04-05T08:00:10.544Z,83.33
2019-04-05T08:01:10.526Z,83.85
2019-04-05T08:02:10.517Z,85.33
2019-04-05T08:03:10.565Z,85.33
2019-04-05T08:04:10.555Z,85.80
2019-04-05T08:05:10.484Z,85.60
2019-04-05T08:06:10.563Z,84.98
2019-04-05T08:07:10.460Z,84.53
2019-04-05T08:08:10.453Z,83.77
2019-04-05T08:09:10.455Z,83.56
2019-04-05T08:10:10.438Z,83.56
2019-04-05T08:11:10.423Z,83.15
2019-04-05T08:12:10.454Z,83.01
2019-04-05T08:13:10.397Z,82.95
2019-04-05T08:14:10.391Z,84.01
2019-04-05T08:15:10.378Z,83.91
2019-04-05T08:16:10.375Z,83.61
2019-04-05T08:17:10.349Z,84.12
2019-04-05T08:18:10.400Z,83.81
2019-04-05T08:19:10.408Z,84.08
2019-04-05T08:20:10.322Z,84.08
2019-04-05T08:21:10.309Z,83.61
2019-04-05T08:22:10.299Z,84.22
2019-04-05T08:23:10.284Z,84.12
2019-04-05T08:24:10.279Z,84.01
2019-04-05T08:25:10.355Z,83.98
2019-04-05T08:26:10.255Z,83.91
2019-04-05T08:27:10.315Z,83.61
2019-04-05T08:28:10.230Z,84.53
2019-04-05T08:29:10.246Z,84.53
2019-04-05T08:30:10.214Z,85.35
2019-04-05T08:31:11.106Z,84.90
2019-04-05T08:32:14.743Z,83.87
2019-04-05T08:33:10.179Z,84.32
2019-04-05T08:34:10.163Z,84.12
2019-04-05T08:35:10.175Z,84.69
2019-04-05T08:36:10.179Z,85.62
2019-04-05T08:37:10.147Z,84.74
2019-04-05T08:38:10.123Z,84.49
2019-04-05T08:39:10.120Z,83.98
2019-04-05T08:40:10.099Z,83.87
2019-04-05T08:41:10.145Z,84.94
2019-04-05T08:42:10.890Z,85.35
2019-04-05T08:43:10.069Z,85.86
2019-04-05T08:44:10.062Z,85.55
2019-04-05T08:45:10.047Z,85.76
2019-04-05T08:46:10.123Z,85.72
2019-04-05T08:47:10.083Z,84.90
2019-04-05T08:48:10.015Z,84.55
2019-04-05T08:49:11.456Z,84.49
2019-04-05T08:50:09.997Z,84.59
2019-04-05T08:51:09.982Z,85.00
2019-04-05T08:52:09.967Z,85.41
2019-04-05T08:53:10.019Z,85.97
2019-04-05T08:54:09.943Z,85.97
2019-04-05T08:55:09.937Z,86.38
2019-04-05T08:56:09.931Z,86.89
2019-04-05T08:57:09.911Z,86.58
2019-04-05T08:58:09.960Z,87.65
2019-04-05T08:59:09.898Z,87.65
2019-04-05T09:00:09.879Z,88.06
2019-04-05T09:01:09.872Z,87.96
2019-04-05T09:02:09.860Z,87.61
2019-04-05T09:03:11.927Z,86.83
2019-04-05T09:04:09.836Z,86.89
2019-04-05T09:05:09.868Z,87.30
2019-04-05T09:06:09.816Z,86.99
2019-04-05T09:07:09.806Z,86.27
2019-04-05T09:08:09.793Z,85.82
2019-04-05T09:09:09.860Z,85.41
2019-04-05T09:10:09.774Z,84.86
2019-04-05T09:11:09.769Z,85.11
2019-04-05T09:12:09.755Z,85.58
2019-04-05T09:13:09.776Z,84.80
2019-04-05T09:14:09.728Z,85.82
2019-04-05T09:15:09.783Z,85.97
2019-04-05T09:16:11.717Z,87.10
2019-04-05T09:17:09.698Z,86.27
2019-04-05T09:18:09.685Z,86.48
2019-04-05T09:19:22.760Z,86.68
2019-04-05T09:20:10.661Z,86.85
2019-04-05T09:21:10.179Z,86.65
2019-04-05T09:22:09.642Z,85.62
2019-04-05T09:23:09.627Z,85.68
2019-04-05T09:24:09.613Z,84.86
2019-04-05T09:25:09.664Z,84.72
2019-04-05T09:26:09.590Z,84.76
2019-04-05T09:27:09.659Z,83.90
2019-04-05T09:28:09.577Z,84.41
2019-04-05T09:29:09.606Z,84.00
2019-04-05T09:30:09.547Z,83.59
2019-04-05T09:31:09.593Z,83.49
2019-04-05T09:32:09.526Z,83.49
2019-04-05T09:33:09.524Z,83.69
2019-04-05T09:34:09.519Z,83.49
2019-04-05T09:35:09.522Z,83.39
2019-04-05T09:36:09.494Z,85.38
2019-04-05T09:37:09.471Z,86.48
2019-04-05T09:38:09.470Z,87.57
2019-04-05T09:39:14.977Z,87.57
2019-04-05T09:40:10.521Z,87.37
2019-04-05T09:41:09.506Z,87.37
2019-04-05T09:42:09.417Z,87.05
2019-04-05T09:43:09.429Z,86.71
2019-04-05T09:44:09.397Z,85.47
2019-04-05T09:45:09.388Z,85.68
2019-04-05T09:46:09.383Z,85.44
2019-04-05T09:47:09.418Z,85.13
2019-04-05T09:48:09.354Z,85.23
2019-04-05T09:49:09.338Z,85.78
2019-04-05T09:50:09.326Z,85.89
2019-04-05T09:51:09.395Z,85.95
2019-04-05T09:52:09.306Z,85.44
2019-04-05T09:53:09.399Z,85.64
2019-04-05T09:54:09.281Z,85.44
2019-04-05T09:55:09.277Z,85.50
2019-04-05T09:56:09.264Z,84.78
2019-04-05T09:57:09.253Z,85.33
2019-04-05T09:58:10.238Z,85.95
2019-04-05T09:59:09.292Z,85.89
2019-04-05T10:00:09.221Z,86.25
2019-04-05T10:01:09.285Z,86.40
2019-04-05T10:02:09.199Z,87.57
2019-04-05T10:03:09.189Z,87.53
2019-04-05T10:04:09.172Z,87.32
2019-04-05T10:05:09.164Z,87.02
2019-04-05T10:06:09.155Z,86.87
2019-04-05T10:07:09.157Z,86.25
2019-04-05T10:08:09.144Z,86.25
2019-04-05T10:09:09.179Z,85.80
2019-04-05T10:10:09.105Z,86.05
2019-04-05T10:11:09.103Z,86.81
2019-04-05T10:12:09.186Z,87.53
2019-04-05T10:13:09.919Z,87.94
2019-04-05T10:14:09.075Z,88.04
2019-04-05T10:15:09.067Z,87.28
2019-04-05T10:16:09.048Z,86.57
2019-04-05T10:17:09.035Z,86.98
2019-04-05T10:18:09.083Z,87.02
2019-04-05T10:19:09.015Z,86.87
2019-04-05T10:20:09.079Z,86.57
2019-04-05T10:21:08.987Z,86.25
2019-04-05T10:22:08.985Z,85.91
2019-04-05T10:23:08.968Z,85.60
2019-04-05T10:24:09.056Z,85.30
2019-04-05T10:25:08.946Z,85.56
2019-04-05T10:26:08.935Z,85.15
2019-04-05T10:27:08.922Z,85.30
2019-04-05T10:28:08.914Z,85.56
2019-04-05T10:29:08.898Z,85.56
2019-04-05T10:30:08.946Z,84.84
2019-04-05T10:31:08.888Z,84.44
2019-04-05T10:32:08.873Z,84.64
2019-04-05T10:33:08.862Z,84.53
2019-04-05T10:34:08.845Z,84.29
2019-04-05T10:35:08.919Z,83.88
2019-04-05T10:36:08.853Z,84.09
2019-04-05T10:37:08.822Z,83.58
2019-04-05T10:38:08.807Z,83.47
2019-04-05T10:39:08.795Z,83.27
2019-04-05T10:40:08.863Z,83.17
2019-04-05T10:41:08.776Z,83.47
2019-04-05T10:42:08.781Z,83.37
2019-04-05T10:43:08.754Z,83.68
2019-04-05T10:44:08.739Z,83.68
2019-04-05T10:45:08.728Z,83.92
2019-04-05T10:46:08.775Z,84.53
2019-04-05T10:47:08.763Z,84.84
2019-04-05T10:48:08.695Z,84.53
2019-04-05T10:49:08.682Z,84.33
2019-04-05T10:50:08.671Z,84.03
2019-04-05T10:51:08.670Z,84.23
2019-04-05T10:52:08.655Z,84.53
2019-04-05T10:53:08.722Z,85.25
2019-04-05T10:54:09.567Z,85.60
2019-04-05T10:55:08.621Z,85.39
2019-04-05T10:56:08.605Z,85.09
2019-04-05T10:57:08.598Z,84.99
2019-04-05T10:58:08.649Z,84.84
2019-04-05T10:59:08.573Z,83.47
2019-04-05T11:00:08.570Z,83.27
2019-04-05T11:01:08.563Z,83.27
2019-04-05T11:02:08.540Z,83.37
2019-04-05T11:03:08.588Z,82.86
2019-04-05T11:04:08.524Z,82.96
2019-04-05T11:05:08.512Z,82.86
2019-04-05T11:06:08.557Z,82.96
2019-04-05T11:07:08.490Z,82.96
2019-04-05T11:08:08.536Z,82.96
2019-04-05T11:09:08.525Z,82.96
2019-04-05T11:10:08.454Z,82.96
2019-04-05T11:11:08.505Z,82.86
2019-04-05T11:12:08.798Z,82.55
2019-04-05T11:13:08.428Z,81.94
2019-04-05T11:14:13.851Z,81.38
2019-04-05T11:15:09.404Z,81.08
2019-04-05T11:16:08.427Z,80.83
2019-04-05T11:17:08.382Z,80.02
2019-04-05T11:18:08.376Z,80.43
2019-04-05T11:19:08.366Z,80.08
2019-04-05T11:20:20.660Z,79.61
2019-04-05T11:21:09.331Z,79.16
2019-04-05T11:22:08.331Z,79.16
2019-04-05T11:23:08.316Z,79.27
2019-04-05T11:24:08.301Z,79.27
2019-04-05T11:25:08.329Z,79.98
2019-04-05T11:26:08.361Z,80.08
2019-04-05T11:27:08.268Z,79.37
2019-04-05T11:28:08.271Z,78.96
2019-04-05T11:29:08.248Z,79.68
2019-04-05T11:30:08.245Z,78.31
2019-04-05T11:31:08.225Z,78.72
2019-04-05T11:32:08.272Z,78.65
2019-04-05T11:33:08.201Z,78.96
2019-04-05T11:34:08.194Z,78.65
2019-04-05T11:35:08.183Z,78.75
2019-04-05T11:36:08.185Z,78.20
2019-04-05T11:37:08.180Z,78.20
2019-04-05T11:38:08.146Z,78.82
2019-04-05T11:39:08.141Z,78.11
2019-04-05T11:40:08.142Z,77.80
2019-04-05T11:41:08.163Z,77.59
2019-04-05T11:42:08.165Z,77.66
2019-04-05T11:43:08.098Z,77.35
2019-04-05T11:44:08.089Z,77.49
2019-04-05T11:45:08.071Z,77.35
2019-04-05T11:46:08.063Z,76.64
2019-04-05T11:47:08.107Z,76.60
2019-04-05T11:48:08.037Z,76.40
2019-04-05T11:49:08.052Z,75.58
2019-04-05T11:50:08.036Z,75.89
2019-04-05T11:51:08.004Z,75.65
2019-04-05T11:52:08.055Z,74.42
2019-04-05T11:53:08.041Z,74.69
2019-04-05T11:54:07.977Z,74.59
2019-04-05T11:55:07.967Z,73.43
2019-04-05T11:56:14.401Z,73.23
2019-04-05T11:57:08.939Z,73.23
2019-04-05T11:58:08.095Z,72.38
2019-04-05T11:59:07.923Z,72.17
2019-04-05T12:00:07.936Z,71.77
2019-04-05T12:01:07.893Z,71.77
2019-04-05T12:02:07.882Z,71.23
2019-04-05T12:03:09.661Z,70.10
2019-04-05T12:04:07.930Z,69.70
2019-04-05T12:05:07.848Z,69.70
2019-04-05T12:06:07.844Z,70.51
2019-04-05T12:07:07.843Z,70.10
2019-04-05T12:08:07.817Z,70.51
2019-04-05T12:09:07.866Z,69.70
2019-04-05T12:10:07.800Z,69.36
2019-04-05T12:11:07.805Z,69.15
2019-04-05T12:12:07.774Z,69.26
2019-04-05T12:13:07.766Z,69.63
2019-04-05T12:14:07.771Z,69.39
2019-04-05T12:15:07.745Z,70.41
2019-04-05T12:16:10.374Z,70.92
2019-04-05T12:17:09.689Z,70.21
2019-04-05T12:18:07.766Z,69.67
2019-04-05T12:19:07.755Z,70.28
2019-04-05T12:20:07.726Z,69.36
2019-04-05T12:21:07.690Z,69.87
2019-04-05T12:22:09.108Z,69.56
2019-04-05T12:23:07.653Z,69.36
2019-04-05T12:24:07.642Z,70.21
2019-04-05T12:25:07.706Z,70.00
2019-04-05T12:26:07.621Z,71.36
2019-04-05T12:27:07.640Z,71.80
2019-04-05T12:28:10.436Z,72.62
2019-04-05T12:29:07.589Z,71.97
2019-04-05T12:30:07.641Z,72.08
2019-04-05T12:31:07.566Z,71.46
2019-04-05T12:32:07.562Z,70.92
2019-04-05T12:33:13.559Z,70.82
2019-04-05T12:34:08.540Z,71.26
2019-04-05T12:35:08.396Z,71.87
2019-04-05T12:36:07.518Z,72.38
2019-04-05T12:37:07.498Z,71.46
2019-04-05T12:38:07.491Z,70.92
2019-04-05T12:39:08.184Z,70.68
2019-04-05T12:40:09.808Z,69.67
2019-04-05T12:41:10.811Z,69.53
2019-04-05T12:42:07.446Z,69.02
2019-04-05T12:43:07.437Z,69.43
2019-04-05T12:44:07.425Z,68.58
2019-04-05T12:45:07.414Z,68.79
2019-04-05T12:46:07.464Z,67.66
2019-04-05T12:47:07.391Z,67.53
2019-04-05T12:48:07.381Z,67.77
2019-04-05T12:49:07.369Z,67.77
2019-04-05T12:50:07.362Z,67.74
2019-04-05T12:51:07.387Z,66.58
2019-04-05T12:52:07.341Z,66.61